sensor_id;sensor_type;location;lat;lon;timestamp;P1;durP1;ratioP1;P2;durP2;ratioP2
17850;SDS011;9051;51.548;14.348;2022-12-11T00:00:59;16.27;;;9.03;;
17850;SDS011;9051;51.548;14.348;2022-12-11T00:03:43;15.83;;;9.23;;
17850;SDS011;9051;51.548;14.348;2022-12-11T00:06:16;16.20;;;8.93;;
17850;SDS011;9051;51.548;14.348;2022-12-11T00:08:50;15.87;;;9.10;;
17850;SDS011;9051;51.548;14.348;2022-12-11T00:11:23;17.03;;;9.40;;
17850;SDS011;9051;51.548;14.348;2022-12-11T00:13:55;15.13;;;9.40;;
17850;SDS011;9051;51.548;14.348;2022-12-11T00:16:27;17.73;;;10.47;;
17850;SDS011;9051;51.548;14.348;2022-12-11T00:19:01;17.67;;;10.13;;
17850;SDS011;9051;51.548;14.348;2022-12-11T00:21:33;17.17;;;10.40;;
17850;SDS011;9051;51.548;14.348;2022-12-11T00:24:06;15.53;;;9.33;;
17850;SDS011;9051;51.548;14.348;2022-12-11T00:26:39;17.43;;;10.10;;
17850;SDS011;9051;51.548;14.348;2022-12-11T00:29:11;15.97;;;9.50;;
17850;SDS011;9051;51.548;14.348;2022-12-11T00:31:46;17.00;;;10.17;;
17850;SDS011;9051;51.548;14.348;2022-12-11T00:34:19;18.67;;;10.90;;
17850;SDS011;9051;51.548;14.348;2022-12-11T00:36:51;18.40;;;10.50;;
17850;SDS011;9051;51.548;14.348;2022-12-11T00:42:49;17.37;;;10.73;;
17850;SDS011;9051;51.548;14.348;2022-12-11T00:45:21;17.70;;;10.43;;
17850;SDS011;9051;51.548;14.348;2022-12-11T00:47:53;19.83;;;10.97;;
17850;SDS011;9051;51.548;14.348;2022-12-11T00:50:26;18.17;;;10.80;;
17850;SDS011;9051;51.548;14.348;2022-12-11T00:52:59;19.50;;;11.33;;
17850;SDS011;9051;51.548;14.348;2022-12-11T00:55:34;17.57;;;10.73;;
17850;SDS011;9051;51.548;14.348;2022-12-11T00:58:08;17.33;;;11.07;;
17850;SDS011;9051;51.548;14.348;2022-12-11T01:00:40;16.43;;;10.10;;
17850;SDS011;9051;51.548;14.348;2022-12-11T01:03:13;17.53;;;10.73;;
17850;SDS011;9051;51.548;14.348;2022-12-11T01:05:53;18.00;;;10.47;;
17850;SDS011;9051;51.548;14.348;2022-12-11T01:08:25;17.80;;;10.50;;
17850;SDS011;9051;51.548;14.348;2022-12-11T01:11:01;19.30;;;11.33;;
17850;SDS011;9051;51.548;14.348;2022-12-11T01:13:34;16.87;;;11.17;;
17850;SDS011;9051;51.548;14.348;2022-12-11T01:16:10;19.87;;;10.57;;
17850;SDS011;9051;51.548;14.348;2022-12-11T01:18:45;18.60;;;10.90;;
17850;SDS011;9051;51.548;14.348;2022-12-11T01:21:18;18.07;;;10.90;;
17850;SDS011;9051;51.548;14.348;2022-12-11T01:23:50;17.97;;;11.07;;
17850;SDS011;9051;51.548;14.348;2022-12-11T01:26:23;19.90;;;11.00;;
17850;SDS011;9051;51.548;14.348;2022-12-11T01:28:55;20.07;;;11.10;;
17850;SDS011;9051;51.548;14.348;2022-12-11T01:31:27;18.07;;;10.47;;
17850;SDS011;9051;51.548;14.348;2022-12-11T01:33:59;17.43;;;10.47;;
17850;SDS011;9051;51.548;14.348;2022-12-11T01:36:32;18.63;;;10.50;;
17850;SDS011;9051;51.548;14.348;2022-12-11T01:39:04;17.23;;;10.57;;
17850;SDS011;9051;51.548;14.348;2022-12-11T01:41:36;18.43;;;10.27;;
17850;SDS011;9051;51.548;14.348;2022-12-11T01:47:24;18.03;;;10.00;;
17850;SDS011;9051;51.548;14.348;2022-12-11T01:49:57;15.70;;;9.77;;
17850;SDS011;9051;51.548;14.348;2022-12-11T01:52:30;18.40;;;11.17;;
17850;SDS011;9051;51.548;14.348;2022-12-11T01:55:02;18.77;;;10.47;;
17850;SDS011;9051;51.548;14.348;2022-12-11T01:57:35;16.40;;;9.67;;
17850;SDS011;9051;51.548;14.348;2022-12-11T02:00:10;17.53;;;9.67;;
17850;SDS011;9051;51.548;14.348;2022-12-11T02:02:44;18.57;;;10.50;;
17850;SDS011;9051;51.548;14.348;2022-12-11T02:05:16;18.53;;;10.50;;
17850;SDS011;9051;51.548;14.348;2022-12-11T02:07:51;16.97;;;10.13;;
17850;SDS011;9051;51.548;14.348;2022-12-11T02:10:29;19.90;;;10.73;;
17850;SDS011;9051;51.548;14.348;2022-12-11T02:13:12;17.57;;;9.93;;
17850;SDS011;9051;51.548;14.348;2022-12-11T02:15:50;17.67;;;9.73;;
17850;SDS011;9051;51.548;14.348;2022-12-11T02:18:30;17.93;;;10.40;;
17850;SDS011;9051;51.548;14.348;2022-12-11T02:21:08;16.93;;;10.33;;
17850;SDS011;9051;51.548;14.348;2022-12-11T02:23:56;15.60;;;9.33;;
17850;SDS011;9051;51.548;14.348;2022-12-11T02:29:47;18.17;;;10.20;;
17850;SDS011;9051;51.548;14.348;2022-12-11T02:32:23;17.73;;;9.30;;
17850;SDS011;9051;51.548;14.348;2022-12-11T02:35:09;16.77;;;10.60;;
17850;SDS011;9051;51.548;14.348;2022-12-11T02:37:46;16.10;;;10.03;;
17850;SDS011;9051;51.548;14.348;2022-12-11T02:40:20;17.97;;;10.50;;
17850;SDS011;9051;51.548;14.348;2022-12-11T02:42:58;18.37;;;10.23;;
17850;SDS011;9051;51.548;14.348;2022-12-11T02:45:35;16.93;;;10.23;;
17850;SDS011;9051;51.548;14.348;2022-12-11T02:48:09;17.20;;;10.27;;
17850;SDS011;9051;51.548;14.348;2022-12-11T02:50:43;15.27;;;9.40;;
17850;SDS011;9051;51.548;14.348;2022-12-11T02:53:18;16.37;;;10.30;;
17850;SDS011;9051;51.548;14.348;2022-12-11T02:55:55;19.10;;;10.53;;
17850;SDS011;9051;51.548;14.348;2022-12-11T02:58:32;15.73;;;9.47;;
17850;SDS011;9051;51.548;14.348;2022-12-11T03:01:09;20.10;;;10.63;;
17850;SDS011;9051;51.548;14.348;2022-12-11T03:03:41;17.77;;;10.63;;
17850;SDS011;9051;51.548;14.348;2022-12-11T03:06:14;17.37;;;10.63;;
17850;SDS011;9051;51.548;14.348;2022-12-11T03:08:51;17.30;;;10.23;;
17850;SDS011;9051;51.548;14.348;2022-12-11T03:11:23;16.90;;;10.40;;
17850;SDS011;9051;51.548;14.348;2022-12-11T03:13:55;18.37;;;10.27;;
17850;SDS011;9051;51.548;14.348;2022-12-11T03:16:32;18.67;;;10.13;;
17850;SDS011;9051;51.548;14.348;2022-12-11T03:19:08;19.63;;;10.70;;
17850;SDS011;9051;51.548;14.348;2022-12-11T03:21:47;17.90;;;10.53;;
17850;SDS011;9051;51.548;14.348;2022-12-11T03:24:25;16.70;;;10.03;;
17850;SDS011;9051;51.548;14.348;2022-12-11T03:27:05;15.67;;;9.87;;
17850;SDS011;9051;51.548;14.348;2022-12-11T03:29:46;17.73;;;10.77;;
17850;SDS011;9051;51.548;14.348;2022-12-11T03:32:25;18.53;;;10.13;;
17850;SDS011;9051;51.548;14.348;2022-12-11T03:35:02;19.87;;;10.97;;
17850;SDS011;9051;51.548;14.348;2022-12-11T03:37:39;15.83;;;10.30;;
17850;SDS011;9051;51.548;14.348;2022-12-11T03:40:13;16.50;;;9.93;;
17850;SDS011;9051;51.548;14.348;2022-12-11T03:42:48;15.10;;;9.80;;
17850;SDS011;9051;51.548;14.348;2022-12-11T03:45:22;18.10;;;10.23;;
17850;SDS011;9051;51.548;14.348;2022-12-11T03:47:59;18.27;;;11.10;;
17850;SDS011;9051;51.548;14.348;2022-12-11T03:50:33;15.97;;;9.97;;
17850;SDS011;9051;51.548;14.348;2022-12-11T03:53:06;17.40;;;10.37;;
17850;SDS011;9051;51.548;14.348;2022-12-11T03:55:39;14.83;;;9.20;;
17850;SDS011;9051;51.548;14.348;2022-12-11T03:58:13;16.57;;;10.50;;
17850;SDS011;9051;51.548;14.348;2022-12-11T04:00:46;14.70;;;9.83;;
17850;SDS011;9051;51.548;14.348;2022-12-11T04:03:20;17.90;;;10.07;;
17850;SDS011;9051;51.548;14.348;2022-12-11T04:05:53;17.20;;;10.60;;
17850;SDS011;9051;51.548;14.348;2022-12-11T04:08:26;17.30;;;9.77;;
17850;SDS011;9051;51.548;14.348;2022-12-11T04:10:57;15.10;;;9.63;;
17850;SDS011;9051;51.548;14.348;2022-12-11T04:13:47;16.97;;;9.30;;
17850;SDS011;9051;51.548;14.348;2022-12-11T04:16:40;18.40;;;9.67;;
17850;SDS011;9051;51.548;14.348;2022-12-11T04:19:13;18.87;;;10.20;;
17850;SDS011;9051;51.548;14.348;2022-12-11T04:22:02;16.13;;;9.40;;
17850;SDS011;9051;51.548;14.348;2022-12-11T04:24:58;16.80;;;9.33;;
17850;SDS011;9051;51.548;14.348;2022-12-11T04:27:31;16.23;;;10.23;;
17850;SDS011;9051;51.548;14.348;2022-12-11T04:30:24;15.37;;;10.03;;
17850;SDS011;9051;51.548;14.348;2022-12-11T04:32:57;17.27;;;9.60;;
17850;SDS011;9051;51.548;14.348;2022-12-11T04:35:31;19.40;;;11.03;;
17850;SDS011;9051;51.548;14.348;2022-12-11T04:38:03;14.00;;;9.27;;
17850;SDS011;9051;51.548;14.348;2022-12-11T04:40:35;14.43;;;9.03;;
17850;SDS011;9051;51.548;14.348;2022-12-11T04:43:07;16.53;;;9.67;;
17850;SDS011;9051;51.548;14.348;2022-12-11T04:45:39;18.17;;;9.47;;
17850;SDS011;9051;51.548;14.348;2022-12-11T04:48:11;15.40;;;9.20;;
17850;SDS011;9051;51.548;14.348;2022-12-11T04:50:47;17.63;;;9.93;;
17850;SDS011;9051;51.548;14.348;2022-12-11T04:53:19;17.10;;;9.90;;
17850;SDS011;9051;51.548;14.348;2022-12-11T04:55:52;16.63;;;9.57;;
17850;SDS011;9051;51.548;14.348;2022-12-11T04:58:25;15.70;;;9.80;;
17850;SDS011;9051;51.548;14.348;2022-12-11T05:00:58;16.67;;;10.30;;
17850;SDS011;9051;51.548;14.348;2022-12-11T05:03:30;17.20;;;10.60;;
17850;SDS011;9051;51.548;14.348;2022-12-11T05:06:04;17.37;;;10.17;;
17850;SDS011;9051;51.548;14.348;2022-12-11T05:08:36;18.13;;;10.33;;
17850;SDS011;9051;51.548;14.348;2022-12-11T05:11:11;17.27;;;10.50;;
17850;SDS011;9051;51.548;14.348;2022-12-11T05:13:44;16.60;;;10.20;;
17850;SDS011;9051;51.548;14.348;2022-12-11T05:16:17;18.33;;;10.30;;
17850;SDS011;9051;51.548;14.348;2022-12-11T05:18:48;17.90;;;10.70;;
17850;SDS011;9051;51.548;14.348;2022-12-11T05:21:23;20.90;;;11.57;;
17850;SDS011;9051;51.548;14.348;2022-12-11T05:23:55;18.93;;;10.60;;
17850;SDS011;9051;51.548;14.348;2022-12-11T05:26:28;18.53;;;10.90;;
17850;SDS011;9051;51.548;14.348;2022-12-11T05:29:00;20.17;;;11.87;;
17850;SDS011;9051;51.548;14.348;2022-12-11T05:31:33;19.40;;;11.03;;
17850;SDS011;9051;51.548;14.348;2022-12-11T05:34:06;20.43;;;11.93;;
17850;SDS011;9051;51.548;14.348;2022-12-11T05:36:39;19.57;;;11.13;;
17850;SDS011;9051;51.548;14.348;2022-12-11T05:39:12;22.43;;;12.13;;
17850;SDS011;9051;51.548;14.348;2022-12-11T05:41:47;19.87;;;12.37;;
17850;SDS011;9051;51.548;14.348;2022-12-11T05:44:19;19.23;;;11.77;;
17850;SDS011;9051;51.548;14.348;2022-12-11T05:46:51;19.50;;;11.83;;
17850;SDS011;9051;51.548;14.348;2022-12-11T05:49:23;20.77;;;11.80;;
17850;SDS011;9051;51.548;14.348;2022-12-11T05:51:56;18.17;;;11.40;;
17850;SDS011;9051;51.548;14.348;2022-12-11T05:54:29;20.17;;;12.23;;
17850;SDS011;9051;51.548;14.348;2022-12-11T05:57:01;23.60;;;12.57;;
17850;SDS011;9051;51.548;14.348;2022-12-11T05:59:33;22.33;;;12.50;;
17850;SDS011;9051;51.548;14.348;2022-12-11T06:02:06;22.70;;;13.20;;
17850;SDS011;9051;51.548;14.348;2022-12-11T06:04:39;21.13;;;12.53;;
17850;SDS011;9051;51.548;14.348;2022-12-11T06:07:12;20.70;;;12.07;;
17850;SDS011;9051;51.548;14.348;2022-12-11T06:09:44;22.53;;;12.30;;
17850;SDS011;9051;51.548;14.348;2022-12-11T06:12:16;25.30;;;13.43;;
17850;SDS011;9051;51.548;14.348;2022-12-11T06:14:48;24.20;;;13.63;;
17850;SDS011;9051;51.548;14.348;2022-12-11T06:17:20;25.57;;;15.47;;
17850;SDS011;9051;51.548;14.348;2022-12-11T06:19:53;27.00;;;15.20;;
17850;SDS011;9051;51.548;14.348;2022-12-11T06:22:26;25.73;;;14.93;;
17850;SDS011;9051;51.548;14.348;2022-12-11T06:24:58;27.07;;;14.73;;
17850;SDS011;9051;51.548;14.348;2022-12-11T06:27:30;23.60;;;13.67;;
17850;SDS011;9051;51.548;14.348;2022-12-11T06:30:02;22.60;;;13.67;;
17850;SDS011;9051;51.548;14.348;2022-12-11T06:32:35;22.10;;;13.33;;
17850;SDS011;9051;51.548;14.348;2022-12-11T06:35:08;25.17;;;13.73;;
17850;SDS011;9051;51.548;14.348;2022-12-11T06:37:43;21.47;;;12.73;;
17850;SDS011;9051;51.548;14.348;2022-12-11T06:40:15;20.43;;;12.03;;
17850;SDS011;9051;51.548;14.348;2022-12-11T06:42:47;19.57;;;11.70;;
17850;SDS011;9051;51.548;14.348;2022-12-11T06:45:20;19.80;;;12.37;;
17850;SDS011;9051;51.548;14.348;2022-12-11T06:47:52;21.57;;;12.77;;
17850;SDS011;9051;51.548;14.348;2022-12-11T06:50:25;20.07;;;12.33;;
17850;SDS011;9051;51.548;14.348;2022-12-11T06:52:58;19.60;;;11.40;;
17850;SDS011;9051;51.548;14.348;2022-12-11T06:55:33;20.83;;;12.03;;
17850;SDS011;9051;51.548;14.348;2022-12-11T06:58:05;20.17;;;12.03;;
17850;SDS011;9051;51.548;14.348;2022-12-11T07:00:38;20.43;;;12.20;;
17850;SDS011;9051;51.548;14.348;2022-12-11T07:03:11;21.53;;;12.53;;
17850;SDS011;9051;51.548;14.348;2022-12-11T07:05:43;23.77;;;12.90;;
17850;SDS011;9051;51.548;14.348;2022-12-11T07:08:17;20.40;;;12.33;;
17850;SDS011;9051;51.548;14.348;2022-12-11T07:10:50;21.93;;;12.97;;
17850;SDS011;9051;51.548;14.348;2022-12-11T07:13:22;23.73;;;12.43;;
17850;SDS011;9051;51.548;14.348;2022-12-11T07:15:55;23.17;;;12.53;;
17850;SDS011;9051;51.548;14.348;2022-12-11T07:18:30;21.70;;;12.80;;
17850;SDS011;9051;51.548;14.348;2022-12-11T07:21:03;22.47;;;12.93;;
17850;SDS011;9051;51.548;14.348;2022-12-11T07:23:41;21.60;;;13.37;;
17850;SDS011;9051;51.548;14.348;2022-12-11T07:26:15;25.57;;;13.50;;
17850;SDS011;9051;51.548;14.348;2022-12-11T07:28:48;22.30;;;13.47;;
17850;SDS011;9051;51.548;14.348;2022-12-11T07:31:21;22.17;;;12.87;;
17850;SDS011;9051;51.548;14.348;2022-12-11T07:33:55;23.43;;;14.10;;
17850;SDS011;9051;51.548;14.348;2022-12-11T07:36:29;21.20;;;12.90;;
17850;SDS011;9051;51.548;14.348;2022-12-11T07:39:02;25.37;;;14.03;;
17850;SDS011;9051;51.548;14.348;2022-12-11T07:41:34;23.93;;;13.97;;
17850;SDS011;9051;51.548;14.348;2022-12-11T07:44:13;24.37;;;14.17;;
17850;SDS011;9051;51.548;14.348;2022-12-11T07:46:45;22.90;;;13.63;;
17850;SDS011;9051;51.548;14.348;2022-12-11T07:49:18;26.00;;;14.33;;
17850;SDS011;9051;51.548;14.348;2022-12-11T07:51:57;23.73;;;13.73;;
17850;SDS011;9051;51.548;14.348;2022-12-11T07:54:31;24.90;;;13.23;;
17850;SDS011;9051;51.548;14.348;2022-12-11T07:57:03;20.60;;;13.10;;
17850;SDS011;9051;51.548;14.348;2022-12-11T07:59:37;23.83;;;13.43;;
17850;SDS011;9051;51.548;14.348;2022-12-11T08:02:10;24.37;;;12.63;;
17850;SDS011;9051;51.548;14.348;2022-12-11T08:04:44;25.23;;;13.03;;
17850;SDS011;9051;51.548;14.348;2022-12-11T08:07:17;22.63;;;13.17;;
17850;SDS011;9051;51.548;14.348;2022-12-11T08:09:52;25.60;;;13.53;;
17850;SDS011;9051;51.548;14.348;2022-12-11T08:12:24;20.80;;;12.20;;
17850;SDS011;9051;51.548;14.348;2022-12-11T08:14:56;21.53;;;13.07;;
17850;SDS011;9051;51.548;14.348;2022-12-11T08:17:31;25.70;;;13.97;;
17850;SDS011;9051;51.548;14.348;2022-12-11T08:20:04;20.30;;;13.17;;
17850;SDS011;9051;51.548;14.348;2022-12-11T08:22:37;21.77;;;13.03;;
17850;SDS011;9051;51.548;14.348;2022-12-11T08:25:10;21.33;;;13.23;;
17850;SDS011;9051;51.548;14.348;2022-12-11T08:27:44;20.13;;;12.50;;
17850;SDS011;9051;51.548;14.348;2022-12-11T08:30:16;23.03;;;12.37;;
17850;SDS011;9051;51.548;14.348;2022-12-11T08:32:50;24.30;;;12.57;;
17850;SDS011;9051;51.548;14.348;2022-12-11T08:35:23;21.80;;;12.03;;
17850;SDS011;9051;51.548;14.348;2022-12-11T08:37:57;19.80;;;11.73;;
17850;SDS011;9051;51.548;14.348;2022-12-11T08:40:35;19.33;;;11.53;;
17850;SDS011;9051;51.548;14.348;2022-12-11T08:43:07;22.67;;;13.33;;
17850;SDS011;9051;51.548;14.348;2022-12-11T08:45:39;21.20;;;12.13;;
17850;SDS011;9051;51.548;14.348;2022-12-11T08:48:13;22.47;;;12.40;;
17850;SDS011;9051;51.548;14.348;2022-12-11T08:50:45;22.77;;;12.20;;
17850;SDS011;9051;51.548;14.348;2022-12-11T08:53:19;22.90;;;12.27;;
17850;SDS011;9051;51.548;14.348;2022-12-11T08:55:54;18.47;;;12.37;;
17850;SDS011;9051;51.548;14.348;2022-12-11T08:58:32;21.87;;;12.17;;
17850;SDS011;9051;51.548;14.348;2022-12-11T09:01:05;21.30;;;12.70;;
17850;SDS011;9051;51.548;14.348;2022-12-11T09:03:39;19.13;;;11.80;;
17850;SDS011;9051;51.548;14.348;2022-12-11T09:06:12;23.50;;;12.50;;
17850;SDS011;9051;51.548;14.348;2022-12-11T09:08:47;20.47;;;11.83;;
17850;SDS011;9051;51.548;14.348;2022-12-11T09:11:23;22.23;;;12.27;;
17850;SDS011;9051;51.548;14.348;2022-12-11T09:13:57;19.37;;;12.17;;
17850;SDS011;9051;51.548;14.348;2022-12-11T09:16:32;22.53;;;12.57;;
17850;SDS011;9051;51.548;14.348;2022-12-11T09:19:10;21.90;;;13.07;;
17850;SDS011;9051;51.548;14.348;2022-12-11T09:21:43;21.70;;;13.10;;
17850;SDS011;9051;51.548;14.348;2022-12-11T09:24:15;21.83;;;12.80;;
17850;SDS011;9051;51.548;14.348;2022-12-11T09:26:49;20.90;;;12.90;;
17850;SDS011;9051;51.548;14.348;2022-12-11T09:29:23;26.97;;;14.13;;
17850;SDS011;9051;51.548;14.348;2022-12-11T09:31:55;19.73;;;12.87;;
17850;SDS011;9051;51.548;14.348;2022-12-11T09:34:27;21.30;;;12.27;;
17850;SDS011;9051;51.548;14.348;2022-12-11T09:36:59;21.80;;;12.40;;
17850;SDS011;9051;51.548;14.348;2022-12-11T09:39:32;19.60;;;11.23;;
17850;SDS011;9051;51.548;14.348;2022-12-11T09:42:07;22.67;;;13.13;;
17850;SDS011;9051;51.548;14.348;2022-12-11T09:44:45;20.63;;;12.03;;
17850;SDS011;9051;51.548;14.348;2022-12-11T09:47:24;19.43;;;12.03;;
17850;SDS011;9051;51.548;14.348;2022-12-11T09:50:05;20.40;;;12.17;;
17850;SDS011;9051;51.548;14.348;2022-12-11T09:52:52;23.53;;;13.23;;
17850;SDS011;9051;51.548;14.348;2022-12-11T09:55:39;22.30;;;13.20;;
17850;SDS011;9051;51.548;14.348;2022-12-11T09:58:24;21.73;;;12.70;;
17850;SDS011;9051;51.548;14.348;2022-12-11T10:01:05;20.43;;;12.70;;
17850;SDS011;9051;51.548;14.348;2022-12-11T10:03:47;22.00;;;12.83;;
17850;SDS011;9051;51.548;14.348;2022-12-11T10:06:40;25.33;;;14.57;;
17850;SDS011;9051;51.548;14.348;2022-12-11T10:09:21;20.17;;;12.90;;
17850;SDS011;9051;51.548;14.348;2022-12-11T10:12:04;20.97;;;13.03;;
17850;SDS011;9051;51.548;14.348;2022-12-11T10:14:57;24.10;;;14.00;;
17850;SDS011;9051;51.548;14.348;2022-12-11T10:17:42;23.97;;;14.07;;
17850;SDS011;9051;51.548;14.348;2022-12-11T10:20:17;23.17;;;14.07;;
17850;SDS011;9051;51.548;14.348;2022-12-11T10:22:53;23.97;;;13.83;;
17850;SDS011;9051;51.548;14.348;2022-12-11T10:25:35;22.13;;;12.50;;
17850;SDS011;9051;51.548;14.348;2022-12-11T10:28:14;20.87;;;13.87;;
17850;SDS011;9051;51.548;14.348;2022-12-11T10:30:50;21.97;;;13.60;;
17850;SDS011;9051;51.548;14.348;2022-12-11T10:33:30;21.53;;;12.83;;
17850;SDS011;9051;51.548;14.348;2022-12-11T10:36:11;19.17;;;12.33;;
17850;SDS011;9051;51.548;14.348;2022-12-11T10:38:49;20.30;;;11.80;;
17850;SDS011;9051;51.548;14.348;2022-12-11T10:41:31;20.73;;;12.30;;
17850;SDS011;9051;51.548;14.348;2022-12-11T10:44:15;19.00;;;11.90;;
17850;SDS011;9051;51.548;14.348;2022-12-11T10:47:08;18.47;;;11.70;;
17850;SDS011;9051;51.548;14.348;2022-12-11T10:49:43;20.53;;;12.70;;
17850;SDS011;9051;51.548;14.348;2022-12-11T10:52:24;20.70;;;12.43;;
17850;SDS011;9051;51.548;14.348;2022-12-11T10:54:59;19.00;;;12.20;;
17850;SDS011;9051;51.548;14.348;2022-12-11T10:57:36;22.50;;;13.23;;
17850;SDS011;9051;51.548;14.348;2022-12-11T11:00:25;21.70;;;12.93;;
17850;SDS011;9051;51.548;14.348;2022-12-11T11:03:17;18.50;;;11.70;;
17850;SDS011;9051;51.548;14.348;2022-12-11T11:06:00;19.43;;;11.70;;
17850;SDS011;9051;51.548;14.348;2022-12-11T11:08:37;22.77;;;12.93;;
17850;SDS011;9051;51.548;14.348;2022-12-11T11:11:20;18.93;;;12.83;;
17850;SDS011;9051;51.548;14.348;2022-12-11T11:14:06;21.43;;;12.50;;
17850;SDS011;9051;51.548;14.348;2022-12-11T11:16:44;21.40;;;12.93;;
17850;SDS011;9051;51.548;14.348;2022-12-11T11:19:21;19.70;;;12.23;;
17850;SDS011;9051;51.548;14.348;2022-12-11T11:21:59;21.27;;;12.60;;
17850;SDS011;9051;51.548;14.348;2022-12-11T11:24:36;20.43;;;12.17;;
17850;SDS011;9051;51.548;14.348;2022-12-11T11:27:12;20.73;;;12.60;;
17850;SDS011;9051;51.548;14.348;2022-12-11T11:29:52;19.07;;;12.33;;
17850;SDS011;9051;51.548;14.348;2022-12-11T11:32:31;20.73;;;12.53;;
17850;SDS011;9051;51.548;14.348;2022-12-11T11:35:09;20.93;;;13.03;;
17850;SDS011;9051;51.548;14.348;2022-12-11T11:37:57;19.80;;;13.30;;
17850;SDS011;9051;51.548;14.348;2022-12-11T11:40:36;21.37;;;12.57;;
17850;SDS011;9051;51.548;14.348;2022-12-11T11:43:13;21.37;;;13.17;;
17850;SDS011;9051;51.548;14.348;2022-12-11T11:45:52;23.00;;;13.73;;
17850;SDS011;9051;51.548;14.348;2022-12-11T11:48:30;21.43;;;13.00;;
17850;SDS011;9051;51.548;14.348;2022-12-11T11:51:13;21.27;;;12.87;;
17850;SDS011;9051;51.548;14.348;2022-12-11T11:53:47;20.57;;;13.20;;
17850;SDS011;9051;51.548;14.348;2022-12-11T11:56:22;23.70;;;14.33;;
17850;SDS011;9051;51.548;14.348;2022-12-11T11:59:02;24.50;;;14.17;;
17850;SDS011;9051;51.548;14.348;2022-12-11T12:01:41;24.13;;;13.90;;
17850;SDS011;9051;51.548;14.348;2022-12-11T12:04:14;22.70;;;13.30;;
17850;SDS011;9051;51.548;14.348;2022-12-11T12:06:58;23.40;;;12.57;;
17850;SDS011;9051;51.548;14.348;2022-12-11T12:09:44;21.40;;;12.90;;
17850;SDS011;9051;51.548;14.348;2022-12-11T12:12:27;23.37;;;13.40;;
17850;SDS011;9051;51.548;14.348;2022-12-11T12:18:08;22.17;;;12.13;;
17850;SDS011;9051;51.548;14.348;2022-12-11T12:20:49;22.67;;;12.27;;
17850;SDS011;9051;51.548;14.348;2022-12-11T12:23:33;17.37;;;11.07;;
17850;SDS011;9051;51.548;14.348;2022-12-11T12:26:35;19.83;;;11.63;;
17850;SDS011;9051;51.548;14.348;2022-12-11T12:29:12;21.80;;;12.93;;
17850;SDS011;9051;51.548;14.348;2022-12-11T12:31:58;20.87;;;13.23;;
17850;SDS011;9051;51.548;14.348;2022-12-11T12:34:41;19.77;;;12.80;;
17850;SDS011;9051;51.548;14.348;2022-12-11T12:37:24;23.90;;;13.17;;
17850;SDS011;9051;51.548;14.348;2022-12-11T12:40:09;23.83;;;12.63;;
17850;SDS011;9051;51.548;14.348;2022-12-11T12:42:51;22.37;;;12.57;;
17850;SDS011;9051;51.548;14.348;2022-12-11T12:45:35;22.60;;;12.23;;
17850;SDS011;9051;51.548;14.348;2022-12-11T12:48:15;21.67;;;12.03;;
17850;SDS011;9051;51.548;14.348;2022-12-11T12:50:48;18.00;;;11.70;;
17850;SDS011;9051;51.548;14.348;2022-12-11T12:53:22;19.73;;;11.17;;
17850;SDS011;9051;51.548;14.348;2022-12-11T12:55:58;20.77;;;11.83;;
17850;SDS011;9051;51.548;14.348;2022-12-11T12:58:46;18.70;;;12.43;;
17850;SDS011;9051;51.548;14.348;2022-12-11T13:01:19;21.07;;;12.83;;
17850;SDS011;9051;51.548;14.348;2022-12-11T13:03:56;22.73;;;13.80;;
17850;SDS011;9051;51.548;14.348;2022-12-11T13:06:33;21.87;;;12.80;;
17850;SDS011;9051;51.548;14.348;2022-12-11T13:09:09;23.20;;;13.53;;
17850;SDS011;9051;51.548;14.348;2022-12-11T13:11:47;22.87;;;13.20;;
17850;SDS011;9051;51.548;14.348;2022-12-11T13:14:25;64.03;;;26.77;;
17850;SDS011;9051;51.548;14.348;2022-12-11T13:17:04;36.63;;;19.10;;
17850;SDS011;9051;51.548;14.348;2022-12-11T13:19:38;147.17;;;51.97;;
17850;SDS011;9051;51.548;14.348;2022-12-11T13:22:19;87.63;;;38.00;;
17850;SDS011;9051;51.548;14.348;2022-12-11T13:24:56;30.27;;;16.27;;
17850;SDS011;9051;51.548;14.348;2022-12-11T13:27:37;23.23;;;13.07;;
17850;SDS011;9051;51.548;14.348;2022-12-11T13:30:19;22.27;;;12.23;;
17850;SDS011;9051;51.548;14.348;2022-12-11T13:32:57;22.03;;;12.07;;
17850;SDS011;9051;51.548;14.348;2022-12-11T13:35:34;29.33;;;15.63;;
17850;SDS011;9051;51.548;14.348;2022-12-11T13:38:07;24.33;;;13.03;;
17850;SDS011;9051;51.548;14.348;2022-12-11T13:43:52;22.77;;;11.73;;
17850;SDS011;9051;51.548;14.348;2022-12-11T13:46:25;19.70;;;11.77;;
17850;SDS011;9051;51.548;14.348;2022-12-11T13:49:00;21.93;;;11.87;;
17850;SDS011;9051;51.548;14.348;2022-12-11T13:51:36;24.63;;;13.23;;
17850;SDS011;9051;51.548;14.348;2022-12-11T13:54:14;19.97;;;12.23;;
17850;SDS011;9051;51.548;14.348;2022-12-11T13:56:55;22.63;;;13.03;;
17850;SDS011;9051;51.548;14.348;2022-12-11T13:59:31;21.67;;;12.50;;
17850;SDS011;9051;51.548;14.348;2022-12-11T14:02:08;23.73;;;13.90;;
17850;SDS011;9051;51.548;14.348;2022-12-11T14:04:44;25.30;;;13.50;;
17850;SDS011;9051;51.548;14.348;2022-12-11T14:07:19;23.80;;;13.03;;
17850;SDS011;9051;51.548;14.348;2022-12-11T14:09:58;20.60;;;12.83;;
17850;SDS011;9051;51.548;14.348;2022-12-11T14:12:32;23.73;;;12.40;;
17850;SDS011;9051;51.548;14.348;2022-12-11T14:15:06;24.83;;;12.70;;
17850;SDS011;9051;51.548;14.348;2022-12-11T14:17:43;24.53;;;13.37;;
17850;SDS011;9051;51.548;14.348;2022-12-11T14:20:16;22.30;;;12.77;;
17850;SDS011;9051;51.548;14.348;2022-12-11T14:22:50;23.10;;;12.77;;
17850;SDS011;9051;51.548;14.348;2022-12-11T14:25:23;21.47;;;12.77;;
17850;SDS011;9051;51.548;14.348;2022-12-11T14:27:56;22.97;;;12.33;;
17850;SDS011;9051;51.548;14.348;2022-12-11T14:30:30;22.33;;;13.07;;
17850;SDS011;9051;51.548;14.348;2022-12-11T14:33:05;20.57;;;11.80;;
17850;SDS011;9051;51.548;14.348;2022-12-11T14:35:37;22.43;;;13.07;;
17850;SDS011;9051;51.548;14.348;2022-12-11T14:38:12;19.37;;;12.13;;
17850;SDS011;9051;51.548;14.348;2022-12-11T14:40:50;19.70;;;12.20;;
17850;SDS011;9051;51.548;14.348;2022-12-11T14:43:26;21.17;;;12.07;;
17850;SDS011;9051;51.548;14.348;2022-12-11T14:46:03;19.43;;;11.37;;
17850;SDS011;9051;51.548;14.348;2022-12-11T14:48:38;18.70;;;11.90;;
17850;SDS011;9051;51.548;14.348;2022-12-11T14:51:16;19.53;;;12.00;;
17850;SDS011;9051;51.548;14.348;2022-12-11T14:53:50;17.63;;;11.30;;
17850;SDS011;9051;51.548;14.348;2022-12-11T14:56:24;23.13;;;12.30;;
17850;SDS011;9051;51.548;14.348;2022-12-11T14:58:58;20.47;;;11.60;;
17850;SDS011;9051;51.548;14.348;2022-12-11T15:01:34;19.87;;;12.17;;
17850;SDS011;9051;51.548;14.348;2022-12-11T15:04:18;20.10;;;11.87;;
17850;SDS011;9051;51.548;14.348;2022-12-11T15:06:52;21.47;;;12.20;;
17850;SDS011;9051;51.548;14.348;2022-12-11T15:09:25;22.00;;;11.60;;
17850;SDS011;9051;51.548;14.348;2022-12-11T15:12:06;19.83;;;12.43;;
17850;SDS011;9051;51.548;14.348;2022-12-11T15:14:41;17.90;;;11.37;;
17850;SDS011;9051;51.548;14.348;2022-12-11T15:17:21;19.40;;;11.67;;
17850;SDS011;9051;51.548;14.348;2022-12-11T15:19:55;22.77;;;12.30;;
17850;SDS011;9051;51.548;14.348;2022-12-11T15:22:32;20.97;;;12.83;;
17850;SDS011;9051;51.548;14.348;2022-12-11T15:25:05;20.20;;;12.03;;
17850;SDS011;9051;51.548;14.348;2022-12-11T15:27:49;19.07;;;11.80;;
17850;SDS011;9051;51.548;14.348;2022-12-11T15:30:29;16.80;;;10.97;;